Time;durP1;ratioP1;P1;durP2;ratioP2;P2;SDS_P1;SDS_P2;PMS_P1;PMS_P2;Temp;Humidity;BMP_temperature;BMP_pressure;BME280_temperature;BME280_humidity;BME280_pressure;Samples;Min_cycle;Max_cycle;Signal;HPM_P1;HPM_P2
2021/12/06 00:00:22;;;;;;;6.90;4.70;;;;;;;;;;5051853;28;20717;-76
2021/12/06 00:02:51;;;;;;;5.55;5.10;;;;;;;;;;5052644;28;20191;-76
2021/12/06 00:05:20;;;;;;;8.20;5.53;;;;;;;;;;5051993;28;20191;-77
2021/12/06 00:07:47;;;;;;;7.45;5.05;;;;;;;;;;5051616;28;20732;-76
2021/12/06 00:10:14;;;;;;;6.38;5.78;;;;;;;;;;5051254;28;20207;-77
2021/12/06 00:12:43;;;;;;;6.18;5.50;;;;;;;;;;5052073;28;20222;-75
2021/12/06 00:15:11;;;;;;;7.32;6.13;;;;;;;;;;5052998;28;20195;-75
2021/12/06 00:17:38;;;;;;;8.75;5.53;;;;;;;;;;5039095;28;20203;-75
2021/12/06 00:20:06;;;;;;;6.45;5.85;;;;;;;;;;5052895;28;20214;-75
2021/12/06 00:22:35;;;;;;;8.73;5.63;;;;;;;;;;5052307;28;20202;-75
2021/12/06 00:25:02;;;;;;;6.93;5.65;;;;;;;;;;5046942;28;20205;-75
2021/12/06 00:27:29;;;;;;;7.28;5.90;;;;;;;;;;5042556;28;20202;-76
2021/12/06 00:29:57;;;;;;;5.22;4.55;;;;;;;;;;5053206;28;20198;-76
2021/12/06 00:32:24;;;;;;;8.40;5.15;;;;;;;;;;5049902;28;20223;-76
2021/12/06 00:34:51;;;;;;;9.57;6.10;;;;;;;;;;5052214;28;20226;-76
2021/12/06 00:37:21;;;;;;;6.28;5.65;;;;;;;;;;5051494;28;20199;-76
2021/12/06 00:39:51;;;;;;;7.35;4.78;;;;;;;;;;5044369;28;20642;-77
2021/12/06 00:42:19;;;;;;;7.28;4.80;;;;;;;;;;5051439;28;20195;-76
2021/12/06 00:44:46;;;;;;;7.55;5.18;;;;;;;;;;5049545;28;20206;-76
2021/12/06 00:47:14;;;;;;;7.40;5.88;;;;;;;;;;5048029;28;20206;-77
2021/12/06 00:49:44;;;;;;;6.15;5.00;;;;;;;;;;5052711;28;20202;-77
2021/12/06 00:52:11;;;;;;;7.78;5.07;;;;;;;;;;5049104;28;20701;-77
2021/12/06 00:54:38;;;;;;;10.43;5.82;;;;;;;;;;5048019;28;20578;-74
2021/12/06 00:57:08;;;;;;;6.90;5.65;;;;;;;;;;5052211;28;20654;-75
2021/12/06 00:59:36;;;;;;;8.80;5.78;;;;;;;;;;5050224;28;20245;-76
2021/12/06 01:02:03;;;;;;;7.53;5.53;;;;;;;;;;5050029;28;20399;-75
2021/12/06 01:04:31;;;;;;;5.15;4.53;;;;;;;;;;5052821;28;20651;-74
2021/12/06 01:06:59;;;;;;;6.03;5.35;;;;;;;;;;5053094;28;20195;-76
2021/12/06 01:09:26;;;;;;;7.15;4.93;;;;;;;;;;5049142;28;20655;-75
2021/12/06 01:11:53;;;;;;;5.28;4.47;;;;;;;;;;5052210;28;20206;-77
2021/12/06 01:14:22;;;;;;;8.25;5.38;;;;;;;;;;5050559;28;20241;-75
2021/12/06 01:16:49;;;;;;;5.65;4.45;;;;;;;;;;5050020;28;20207;-76
2021/12/06 01:19:16;;;;;;;6.75;5.30;;;;;;;;;;5052418;28;20274;-76
2021/12/06 01:21:49;;;;;;;5.35;4.85;;;;;;;;;;5051743;28;20191;-76
2021/12/06 01:24:20;;;;;;;6.13;5.00;;;;;;;;;;5043663;28;20213;-77
2021/12/06 01:27:13;;;;;;;5.90;4.78;;;;;;;;;;5039510;28;20203;-76
2021/12/06 01:30:04;;;;;;;6.75;5.07;;;;;;;;;;5048192;28;20290;-76
2021/12/06 01:33:01;;;;;;;5.45;4.95;;;;;;;;;;5045792;28;20211;-77
2021/12/06 01:40:55;;;;;;;8.75;5.18;;;;;;;;;;5044913;28;20252;-76
2021/12/06 01:43:23;;;;;;;6.72;5.75;;;;;;;;;;5051040;28;20191;-76
2021/12/06 01:45:51;;;;;;;5.85;5.25;;;;;;;;;;5039463;28;20659;-76
2021/12/06 01:48:18;;;;;;;6.03;5.43;;;;;;;;;;5048366;28;20191;-77
2021/12/06 01:50:45;;;;;;;6.22;4.60;;;;;;;;;;5043239;28;20206;-76
2021/12/06 01:53:12;;;;;;;4.82;4.10;;;;;;;;;;5045653;28;20212;-76
2021/12/06 01:55:40;;;;;;;4.63;4.32;;;;;;;;;;5049835;28;20199;-75
2021/12/06 01:58:08;;;;;;;5.32;4.70;;;;;;;;;;5050675;28;20199;-76
2021/12/06 02:00:37;;;;;;;5.32;4.82;;;;;;;;;;5050803;28;20223;-76
2021/12/06 02:03:05;;;;;;;6.03;5.40;;;;;;;;;;5050075;28;20195;-77
2021/12/06 02:05:33;;;;;;;5.07;4.57;;;;;;;;;;5050835;28;20650;-76
2021/12/06 02:08:00;;;;;;;5.05;4.55;;;;;;;;;;5050409;28;20206;-77
2021/12/06 02:10:28;;;;;;;5.53;4.32;;;;;;;;;;5048575;28;20207;-75
2021/12/06 02:12:55;;;;;;;5.10;4.60;;;;;;;;;;5050989;28;20642;-76
2021/12/06 02:15:35;;;;;;;5.15;4.07;;;;;;;;;;5050002;28;20199;-77
2021/12/06 02:18:07;;;;;;;4.78;4.35;;;;;;;;;;5044957;28;20245;-77
2021/12/06 02:20:42;;;;;;;7.07;5.68;;;;;;;;;;5050510;28;20198;-74
2021/12/06 02:23:11;;;;;;;4.97;4.47;;;;;;;;;;5050085;28;20645;-75
2021/12/06 02:25:38;;;;;;;5.65;5.10;;;;;;;;;;5049637;28;20229;-77
2021/12/06 02:28:05;;;;;;;5.20;4.70;;;;;;;;;;5051170;28;20666;-77
2021/12/06 02:30:33;;;;;;;8.55;5.10;;;;;;;;;;5048395;28;20207;-78
2021/12/06 02:33:00;;;;;;;6.05;4.45;;;;;;;;;;5051084;28;20222;-77
2021/12/06 02:35:28;;;;;;;4.47;4.07;;;;;;;;;;5050457;28;20195;-78
2021/12/06 02:37:55;;;;;;;5.72;5.05;;;;;;;;;;5051380;28;20205;-77
2021/12/06 02:40:24;;;;;;;5.10;4.40;;;;;;;;;;5045309;28;20662;-76
2021/12/06 02:42:52;;;;;;;5.20;4.47;;;;;;;;;;5051060;28;20195;-76
2021/12/06 02:45:20;;;;;;;5.20;4.70;;;;;;;;;;5049587;28;20563;-77
2021/12/06 02:47:52;;;;;;;6.97;6.38;;;;;;;;;;5050047;28;20678;-76
2021/12/06 02:50:21;;;;;;;7.28;5.32;;;;;;;;;;5045676;28;20289;-77
2021/12/06 02:52:48;;;;;;;6.18;4.63;;;;;;;;;;5050817;28;20210;-78
2021/12/06 02:55:29;;;;;;;4.85;4.38;;;;;;;;;;5048818;28;20680;-76
2021/12/06 02:57:59;;;;;;;5.88;5.05;;;;;;;;;;5049285;28;20206;-76
2021/12/06 03:00:27;;;;;;;5.70;5.13;;;;;;;;;;5049191;28;20685;-77
2021/12/06 03:02:55;;;;;;;6.28;5.45;;;;;;;;;;5044961;28;20716;-75
2021/12/06 03:05:22;;;;;;;6.32;5.75;;;;;;;;;;5049865;28;20187;-78
2021/12/06 03:07:53;;;;;;;12.40;4.97;;;;;;;;;;5050165;28;20573;-76
2021/12/06 03:10:20;;;;;;;5.13;4.68;;;;;;;;;;5045052;28;20213;-77
2021/12/06 03:12:47;;;;;;;5.70;5.20;;;;;;;;;;5050238;28;20206;-76
2021/12/06 03:15:16;;;;;;;5.72;5.13;;;;;;;;;;5050891;28;20194;-77
2021/12/06 03:17:45;;;;;;;5.82;4.40;;;;;;;;;;5043006;28;20198;-76
2021/12/06 03:20:14;;;;;;;5.30;4.80;;;;;;;;;;5050680;28;20284;-77
2021/12/06 03:22:41;;;;;;;5.72;5.15;;;;;;;;;;5050669;28;20277;-77
2021/12/06 03:25:09;;;;;;;5.13;4.72;;;;;;;;;;5046677;28;20195;-77
2021/12/06 03:27:36;;;;;;;5.47;4.50;;;;;;;;;;5049758;28;20225;-75
2021/12/06 03:30:04;;;;;;;5.80;4.68;;;;;;;;;;5050580;28;20206;-76
2021/12/06 03:32:33;;;;;;;6.47;5.10;;;;;;;;;;5040816;28;20218;-76
2021/12/06 03:35:00;;;;;;;5.82;4.55;;;;;;;;;;5048059;28;20646;-76
2021/12/06 03:37:27;;;;;;;6.18;4.75;;;;;;;;;;5046513;28;20543;-75
2021/12/06 03:39:54;;;;;;;4.97;4.45;;;;;;;;;;5047882;28;20231;-77
2021/12/06 03:42:22;;;;;;;5.47;4.90;;;;;;;;;;5051654;28;20206;-80
2021/12/06 03:44:50;;;;;;;4.75;4.35;;;;;;;;;;5054693;28;20198;-77
2021/12/06 03:47:18;;;;;;;5.82;4.72;;;;;;;;;;5037597;28;20210;-78
2021/12/06 03:49:46;;;;;;;5.00;4.32;;;;;;;;;;5040122;28;20851;-78
2021/12/06 03:52:14;;;;;;;4.85;4.45;;;;;;;;;;5050956;28;20195;-77
2021/12/06 03:54:42;;;;;;;4.60;4.20;;;;;;;;;;5051372;28;20612;-78
2021/12/06 03:57:09;;;;;;;5.28;4.60;;;;;;;;;;5048913;28;20202;-78
2021/12/06 03:59:37;;;;;;;6.75;4.80;;;;;;;;;;5050981;28;20218;-77
2021/12/06 04:02:04;;;;;;;6.10;4.35;;;;;;;;;;5050283;28;20206;-78
2021/12/06 04:04:31;;;;;;;5.32;4.47;;;;;;;;;;5045830;28;20211;-79
2021/12/06 04:06:59;;;;;;;5.28;4.78;;;;;;;;;;5048053;28;20207;-77
2021/12/06 04:09:27;;;;;;;6.05;5.13;;;;;;;;;;5047886;28;20230;-77
2021/12/06 04:11:54;;;;;;;5.97;4.82;;;;;;;;;;5052564;28;20198;-77
2021/12/06 04:14:21;;;;;;;6.30;5.05;;;;;;;;;;5051454;28;20215;-77
2021/12/06 04:16:48;;;;;;;5.07;4.50;;;;;;;;;;5049557;28;20235;-77
2021/12/06 04:19:16;;;;;;;4.75;4.35;;;;;;;;;;5044240;28;20561;-78
2021/12/06 04:21:44;;;;;;;6.68;4.40;;;;;;;;;;5050734;28;20646;-77
2021/12/06 04:24:13;;;;;;;5.22;4.57;;;;;;;;;;5053245;28;20195;-76
2021/12/06 04:26:41;;;;;;;5.22;4.75;;;;;;;;;;5051589;28;20282;-76
2021/12/06 04:29:09;;;;;;;4.35;4.00;;;;;;;;;;5046354;28;20687;-77
2021/12/06 04:31:38;;;;;;;5.15;4.57;;;;;;;;;;5045544;28;20195;-77
2021/12/06 04:34:05;;;;;;;5.65;5.07;;;;;;;;;;5050405;28;20215;-77
2021/12/06 04:36:32;;;;;;;5.35;4.93;;;;;;;;;;5052991;28;20253;-77
2021/12/06 04:38:59;;;;;;;4.55;4.15;;;;;;;;;;5050901;28;20195;-76
2021/12/06 04:41:27;;;;;;;5.57;4.85;;;;;;;;;;5049773;28;20621;-77
2021/12/06 04:43:54;;;;;;;4.85;4.40;;;;;;;;;;5047788;28;20214;-77
2021/12/06 04:46:22;;;;;;;5.60;4.70;;;;;;;;;;5043262;28;20195;-77
2021/12/06 04:48:49;;;;;;;5.57;4.70;;;;;;;;;;5034512;28;20207;-77
2021/12/06 04:51:16;;;;;;;5.78;5.20;;;;;;;;;;5047520;28;20198;-77
2021/12/06 04:53:43;;;;;;;4.40;4.00;;;;;;;;;;5052216;28;20214;-77
2021/12/06 04:56:13;;;;;;;4.88;4.30;;;;;;;;;;5049400;28;20202;-77
2021/12/06 04:58:46;;;;;;;4.22;3.83;;;;;;;;;;5052644;28;20653;-77
2021/12/06 05:01:14;;;;;;;4.70;4.30;;;;;;;;;;5051967;28;20202;-76
2021/12/06 05:03:42;;;;;;;5.15;4.75;;;;;;;;;;5051188;28;20194;-76
2021/12/06 05:06:11;;;;;;;5.22;4.70;;;;;;;;;;5052058;28;20557;-77
2021/12/06 05:08:40;;;;;;;4.95;4.13;;;;;;;;;;5052004;28;20202;-77
2021/12/06 05:11:08;;;;;;;7.60;5.22;;;;;;;;;;5045018;28;20214;-77
2021/12/06 05:13:35;;;;;;;4.97;4.25;;;;;;;;;;5052158;28;20215;-77
2021/12/06 05:16:04;;;;;;;6.15;4.50;;;;;;;;;;5050989;28;20681;-78
2021/12/06 05:18:31;;;;;;;4.85;4.43;;;;;;;;;;5052100;28;20202;-77
2021/12/06 05:20:58;;;;;;;6.75;4.28;;;;;;;;;;5052644;28;20202;-77
2021/12/06 05:23:25;;;;;;;4.60;4.10;;;;;;;;;;5052412;28;20559;-78
2021/12/06 05:25:52;;;;;;;5.85;5.20;;;;;;;;;;5045909;28;20206;-77
2021/12/06 05:28:22;;;;;;;6.38;5.07;;;;;;;;;;5051852;28;20558;-77
2021/12/06 05:30:54;;;;;;;5.25;4.75;;;;;;;;;;5043324;28;20203;-76
2021/12/06 05:33:29;;;;;;;12.45;5.18;;;;;;;;;;5051936;28;20688;-77
2021/12/06 05:35:58;;;;;;;6.05;4.88;;;;;;;;;;5050240;28;20226;-77
2021/12/06 05:38:25;;;;;;;5.20;3.97;;;;;;;;;;5044103;28;20194;-77
2021/12/06 05:40:52;;;;;;;6.40;5.40;;;;;;;;;;5037534;28;20212;-78
2021/12/06 05:43:19;;;;;;;7.70;4.82;;;;;;;;;;5047497;28;20187;-77
2021/12/06 05:45:46;;;;;;;5.07;4.57;;;;;;;;;;5048012;28;20648;-77
2021/12/06 05:48:14;;;;;;;6.40;4.60;;;;;;;;;;5049812;28;20214;-77
2021/12/06 05:50:42;;;;;;;13.82;5.20;;;;;;;;;;5044178;28;20578;-78
2021/12/06 05:53:09;;;;;;;5.05;4.53;;;;;;;;;;5041521;28;20218;-77
2021/12/06 05:55:36;;;;;;;6.00;4.45;;;;;;;;;;5048989;28;20202;-77
2021/12/06 05:58:05;;;;;;;5.85;4.78;;;;;;;;;;5051716;28;20191;-77
2021/12/06 06:00:32;;;;;;;7.05;5.40;;;;;;;;;;5046136;28;20218;-77
2021/12/06 06:03:00;;;;;;;5.88;5.10;;;;;;;;;;5047802;28;20198;-76
2021/12/06 06:05:28;;;;;;;7.57;5.30;;;;;;;;;;5049902;28;20195;-77
2021/12/06 06:07:56;;;;;;;12.43;6.38;;;;;;;;;;5049780;28;20201;-76
2021/12/06 06:10:23;;;;;;;7.95;5.10;;;;;;;;;;5045872;28;20222;-77
2021/12/06 06:12:50;;;;;;;12.20;6.47;;;;;;;;;;5045038;28;20198;-76
2021/12/06 06:15:17;;;;;;;11.85;5.75;;;;;;;;;;5050921;28;20202;-76
2021/12/06 06:17:47;;;;;;;10.00;6.57;;;;;;;;;;5040755;28;20199;-77
2021/12/06 06:20:17;;;;;;;7.90;6.55;;;;;;;;;;5050676;28;20198;-76
2021/12/06 06:22:44;;;;;;;8.25;6.50;;;;;;;;;;5050231;28;20195;-76
2021/12/06 06:25:14;;;;;;;8.80;7.13;;;;;;;;;;5038285;28;20191;-77
2021/12/06 06:27:41;;;;;;;9.93;7.05;;;;;;;;;;5044823;28;20234;-76
2021/12/06 06:30:08;;;;;;;9.05;6.57;;;;;;;;;;5049187;28;20195;-76
2021/12/06 06:32:36;;;;;;;9.48;6.18;;;;;;;;;;5049051;28;20586;-76
2021/12/06 06:35:04;;;;;;;9.88;8.55;;;;;;;;;;5050222;28;20698;-76
2021/12/06 06:37:31;;;;;;;7.47;6.32;;;;;;;;;;5050948;28;20202;-75
2021/12/06 06:39:58;;;;;;;9.57;6.97;;;;;;;;;;5046816;28;20218;-76
2021/12/06 06:42:27;;;;;;;12.85;7.82;;;;;;;;;;5041224;28;20682;-74
2021/12/06 06:44:55;;;;;;;9.38;7.35;;;;;;;;;;5043272;28;20245;-76
2021/12/06 06:47:23;;;;;;;16.85;7.88;;;;;;;;;;5032351;28;20199;-77
2021/12/06 06:49:50;;;;;;;10.77;7.80;;;;;;;;;;5046423;28;20203;-78
2021/12/06 06:52:17;;;;;;;9.23;6.72;;;;;;;;;;5049117;28;20195;-78
2021/12/06 06:54:45;;;;;;;12.80;8.18;;;;;;;;;;5043364;28;21456;-77
2021/12/06 06:57:12;;;;;;;12.05;8.02;;;;;;;;;;5046843;28;20558;-78
2021/12/06 06:59:40;;;;;;;16.75;8.43;;;;;;;;;;5049620;28;20215;-79
2021/12/06 07:02:08;;;;;;;14.27;8.55;;;;;;;;;;5040243;28;20203;-79
2021/12/06 07:04:36;;;;;;;12.02;9.40;;;;;;;;;;5046331;28;20666;-78
2021/12/06 07:07:03;;;;;;;10.02;8.77;;;;;;;;;;5042933;28;20567;-78
2021/12/06 07:09:30;;;;;;;16.10;8.82;;;;;;;;;;5049061;28;20202;-76
2021/12/06 07:11:58;;;;;;;9.95;8.32;;;;;;;;;;5049237;28;20205;-75
2021/12/06 07:14:25;;;;;;;9.55;8.18;;;;;;;;;;5046891;28;20207;-77
2021/12/06 07:16:54;;;;;;;11.27;7.70;;;;;;;;;;5036280;28;20203;-75
2021/12/06 07:19:21;;;;;;;13.05;8.45;;;;;;;;;;5047264;28;20566;-78
2021/12/06 07:21:48;;;;;;;13.02;9.30;;;;;;;;;;5050035;28;20201;-75
2021/12/06 07:24:15;;;;;;;10.70;8.77;;;;;;;;;;5046296;28;20207;-75
2021/12/06 07:26:43;;;;;;;13.38;9.68;;;;;;;;;;5043650;28;20673;-75
2021/12/06 07:29:10;;;;;;;15.40;10.52;;;;;;;;;;5043476;28;20203;-75
2021/12/06 07:31:37;;;;;;;12.77;9.00;;;;;;;;;;5040728;28;20663;-76
2021/12/06 07:34:05;;;;;;;13.15;10.25;;;;;;;;;;5050282;28;20218;-75
2021/12/06 07:36:32;;;;;;;13.77;10.20;;;;;;;;;;5048902;28;20203;-75
2021/12/06 07:38:59;;;;;;;11.98;9.02;;;;;;;;;;5047986;28;20221;-76
2021/12/06 07:41:28;;;;;;;13.43;9.00;;;;;;;;;;5041394;28;20206;-76
2021/12/06 07:43:56;;;;;;;15.57;10.07;;;;;;;;;;5038384;28;20195;-75
2021/12/06 07:46:23;;;;;;;14.65;11.23;;;;;;;;;;5040057;28;20192;-76
2021/12/06 07:48:52;;;;;;;11.80;9.57;;;;;;;;;;5042859;28;20195;-75
2021/12/06 07:51:21;;;;;;;16.27;12.20;;;;;;;;;;5048486;28;20206;-75
2021/12/06 07:53:48;;;;;;;14.55;10.85;;;;;;;;;;5034098;28;20230;-77
2021/12/06 07:56:15;;;;;;;15.18;11.05;;;;;;;;;;5043413;28;20203;-79
2021/12/06 07:58:42;;;;;;;16.50;10.43;;;;;;;;;;5049231;28;20206;-78
2021/12/06 08:01:10;;;;;;;12.68;9.52;;;;;;;;;;5042974;28;20215;-78
2021/12/06 08:03:37;;;;;;;13.63;10.15;;;;;;;;;;5043871;28;20643;-78
2021/12/06 08:06:05;;;;;;;16.70;10.82;;;;;;;;;;5042893;28;20199;-78
2021/12/06 08:08:34;;;;;;;16.83;10.80;;;;;;;;;;5049938;28;20687;-78
2021/12/06 08:11:04;;;;;;;16.00;10.23;;;;;;;;;;5041864;28;20605;-77
2021/12/06 08:13:33;;;;;;;10.27;8.82;;;;;;;;;;5049129;28;20658;-78
2021/12/06 08:16:01;;;;;;;12.68;10.43;;;;;;;;;;5047500;28;20878;-79
2021/12/06 08:18:28;;;;;;;15.35;10.20;;;;;;;;;;5051467;28;20198;-77
2021/12/06 08:20:56;;;;;;;14.43;10.15;;;;;;;;;;5053077;28;20202;-78
2021/12/06 08:23:23;;;;;;;12.73;9.70;;;;;;;;;;5052497;28;20209;-77
2021/12/06 08:25:53;;;;;;;16.30;11.75;;;;;;;;;;5049524;28;20206;-78
2021/12/06 08:28:22;;;;;;;20.38;13.20;;;;;;;;;;5052440;28;20202;-77
2021/12/06 08:30:50;;;;;;;19.83;13.50;;;;;;;;;;5052613;28;20198;-78
2021/12/06 08:33:17;;;;;;;19.75;12.57;;;;;;;;;;5052292;28;20650;-78
2021/12/06 08:35:46;;;;;;;17.45;12.10;;;;;;;;;;5053192;28;20662;-79
2021/12/06 08:38:14;;;;;;;18.58;10.80;;;;;;;;;;5052792;28;20242;-78
2021/12/06 08:40:42;;;;;;;14.00;10.75;;;;;;;;;;5048766;28;20574;-79
2021/12/06 08:43:16;;;;;;;14.50;11.25;;;;;;;;;;5038042;28;20200;-80
2021/12/06 08:45:43;;;;;;;18.52;12.00;;;;;;;;;;5044177;28;20655;-80
2021/12/06 08:48:10;;;;;;;13.15;9.77;;;;;;;;;;5053290;28;20414;-79
2021/12/06 08:50:38;;;;;;;16.55;11.77;;;;;;;;;;5051370;28;20211;-79
2021/12/06 08:53:05;;;;;;;13.15;10.85;;;;;;;;;;5052920;28;20199;-78
2021/12/06 08:55:32;;;;;;;12.07;10.75;;;;;;;;;;5035076;28;20674;-78
2021/12/06 08:57:59;;;;;;;14.75;9.68;;;;;;;;;;5052845;28;20195;-79
2021/12/06 09:00:29;;;;;;;14.68;10.00;;;;;;;;;;5046742;28;20222;-79
2021/12/06 09:02:57;;;;;;;11.68;10.45;;;;;;;;;;5037463;28;20207;-79
2021/12/06 09:05:25;;;;;;;11.32;9.75;;;;;;;;;;5046252;28;20191;-79
2021/12/06 09:07:53;;;;;;;13.52;10.70;;;;;;;;;;5052789;28;20202;-81
2021/12/06 09:10:20;;;;;;;12.27;9.57;;;;;;;;;;5047765;28;20212;-79
2021/12/06 09:12:48;;;;;;;14.10;10.18;;;;;;;;;;5049790;28;20202;-79
2021/12/06 09:15:16;;;;;;;14.50;10.10;;;;;;;;;;5050577;28;20209;-79
2021/12/06 09:17:45;;;;;;;13.80;9.52;;;;;;;;;;5047068;28;20618;-79
2021/12/06 09:20:13;;;;;;;14.20;10.25;;;;;;;;;;5051785;28;20661;-79
2021/12/06 09:22:41;;;;;;;12.38;10.25;;;;;;;;;;5044987;28;20199;-77
2021/12/06 09:25:10;;;;;;;12.80;10.20;;;;;;;;;;5045705;28;20236;-80
2021/12/06 09:27:37;;;;;;;14.68;11.10;;;;;;;;;;5051536;28;20199;-77
2021/12/06 09:30:06;;;;;;;15.20;11.57;;;;;;;;;;5046563;28;20207;-77
2021/12/06 09:32:33;;;;;;;17.88;12.38;;;;;;;;;;5049684;28;20206;-73
2021/12/06 09:35:03;;;;;;;16.83;11.32;;;;;;;;;;5050290;28;20698;-77
2021/12/06 09:37:30;;;;;;;20.63;12.77;;;;;;;;;;5051962;28;20654;-76
2021/12/06 09:39:58;;;;;;;17.02;11.15;;;;;;;;;;5045617;28;20253;-78
2021/12/06 09:42:25;;;;;;;37.33;18.40;;;;;;;;;;5046824;28;20202;-77
2021/12/06 09:44:53;;;;;;;29.50;18.30;;;;;;;;;;5047952;28;20195;-77
2021/12/06 09:47:21;;;;;;;23.98;16.42;;;;;;;;;;5049243;28;20195;-77
2021/12/06 09:49:48;;;;;;;23.88;15.43;;;;;;;;;;5041660;28;20206;-78
2021/12/06 09:52:16;;;;;;;21.35;15.32;;;;;;;;;;5047662;28;20546;-77
2021/12/06 09:54:43;;;;;;;21.55;16.73;;;;;;;;;;5046963;28;20915;-79
2021/12/06 09:57:11;;;;;;;18.35;14.10;;;;;;;;;;5044269;28;20658;-74
2021/12/06 09:59:39;;;;;;;18.60;13.82;;;;;;;;;;5046805;28;20614;-74
2021/12/06 10:02:08;;;;;;;20.13;13.13;;;;;;;;;;5047248;28;20654;-75
2021/12/06 10:04:38;;;;;;;24.08;14.15;;;;;;;;;;5051106;28;20273;-74
2021/12/06 10:07:07;;;;;;;16.23;12.68;;;;;;;;;;5051066;28;20203;-74
2021/12/06 10:09:35;;;;;;;18.23;12.73;;;;;;;;;;5050506;28;20206;-75
2021/12/06 10:12:03;;;;;;;16.30;13.60;;;;;;;;;;5035936;28;20207;-75
2021/12/06 10:14:30;;;;;;;16.60;12.43;;;;;;;;;;5047815;28;20713;-76
2021/12/06 10:16:57;;;;;;;13.27;11.88;;;;;;;;;;5043898;28;20198;-74
2021/12/06 10:19:25;;;;;;;12.05;10.57;;;;;;;;;;5050924;28;20253;-76
2021/12/06 10:21:53;;;;;;;16.33;11.05;;;;;;;;;;5050698;28;20233;-77
2021/12/06 10:24:24;;;;;;;16.55;11.13;;;;;;;;;;5050164;28;20209;-74
2021/12/06 10:27:02;;;;;;;13.82;10.60;;;;;;;;;;5049625;28;20209;-75
2021/12/06 10:29:35;;;;;;;14.30;11.32;;;;;;;;;;5050368;28;20859;-74
2021/12/06 10:32:02;;;;;;;17.02;13.30;;;;;;;;;;5047863;28;20735;-75
2021/12/06 10:34:29;;;;;;;14.88;11.63;;;;;;;;;;5049409;28;20219;-74
2021/12/06 10:36:57;;;;;;;17.08;12.95;;;;;;;;;;5050582;28;20198;-75
2021/12/06 10:39:24;;;;;;;18.05;12.10;;;;;;;;;;5048177;28;20233;-75
2021/12/06 10:41:54;;;;;;;18.75;13.13;;;;;;;;;;5043059;28;20203;-74
2021/12/06 10:44:21;;;;;;;14.82;11.95;;;;;;;;;;5048043;28;20465;-74
2021/12/06 10:46:49;;;;;;;19.60;13.40;;;;;;;;;;5043469;28;20194;-75
2021/12/06 10:49:19;;;;;;;21.38;14.63;;;;;;;;;;5050611;28;20642;-75
2021/12/06 10:51:46;;;;;;;17.63;13.38;;;;;;;;;;5048951;28;20206;-75
2021/12/06 10:54:19;;;;;;;18.17;13.43;;;;;;;;;;5047892;28;20194;-75
2021/12/06 10:56:48;;;;;;;15.07;12.05;;;;;;;;;;5048442;28;20241;-75
2021/12/06 10:59:17;;;;;;;15.27;11.07;;;;;;;;;;5050136;28;20246;-74
2021/12/06 11:01:46;;;;;;;18.05;12.50;;;;;;;;;;5041393;28;20195;-75
2021/12/06 11:04:14;;;;;;;14.95;12.63;;;;;;;;;;5050532;28;20199;-75
2021/12/06 11:06:42;;;;;;;16.02;12.73;;;;;;;;;;5050557;28;20206;-75
2021/12/06 11:09:10;;;;;;;12.77;11.32;;;;;;;;;;5049809;28;20716;-74
2021/12/06 11:11:39;;;;;;;16.00;13.23;;;;;;;;;;5048165;28;20578;-74
2021/12/06 11:14:07;;;;;;;14.20;11.55;;;;;;;;;;5050596;28;20213;-75
2021/12/06 11:16:36;;;;;;;14.82;12.55;;;;;;;;;;5039633;28;20238;-75
2021/12/06 11:19:04;;;;;;;12.00;10.55;;;;;;;;;;5033388;28;20778;-76
2021/12/06 11:21:36;;;;;;;14.05;11.65;;;;;;;;;;5046729;28;20247;-76
2021/12/06 11:24:14;;;;;;;13.65;11.98;;;;;;;;;;5050202;28;20722;-75
2021/12/06 11:26:43;;;;;;;13.57;11.02;;;;;;;;;;5045204;28;20202;-74
2021/12/06 11:29:12;;;;;;;13.95;11.65;;;;;;;;;;5049866;28;20198;-74
2021/12/06 11:31:42;;;;;;;13.40;11.10;;;;;;;;;;5044109;28;20202;-74
2021/12/06 11:34:10;;;;;;;15.20;11.23;;;;;;;;;;5043053;28;20191;-74
2021/12/06 11:36:40;;;;;;;14.88;10.30;;;;;;;;;;5046012;28;20223;-74
2021/12/06 11:39:11;;;;;;;15.55;10.82;;;;;;;;;;5038516;28;20200;-75
2021/12/06 11:41:38;;;;;;;12.15;10.93;;;;;;;;;;5044808;28;20206;-74
2021/12/06 11:44:14;;;;;;;11.98;10.43;;;;;;;;;;5049917;28;20666;-73
2021/12/06 11:46:42;;;;;;;13.65;10.93;;;;;;;;;;5046506;28;20194;-74
2021/12/06 11:49:16;;;;;;;12.88;10.85;;;;;;;;;;5035156;28;20200;-74
2021/12/06 11:51:46;;;;;;;12.93;10.50;;;;;;;;;;5045636;28;20541;-75
2021/12/06 11:54:13;;;;;;;11.50;10.30;;;;;;;;;;5051952;28;20199;-77
2021/12/06 11:56:44;;;;;;;10.65;9.02;;;;;;;;;;5051798;28;20219;-75
2021/12/06 11:59:12;;;;;;;10.32;9.27;;;;;;;;;;5048117;28;20222;-74
2021/12/06 12:01:40;;;;;;;12.38;10.57;;;;;;;;;;5048373;28;20190;-75
2021/12/06 12:04:10;;;;;;;12.15;10.43;;;;;;;;;;5049534;28;20289;-75
2021/12/06 12:06:38;;;;;;;10.90;9.80;;;;;;;;;;5047378;28;20191;-75
2021/12/06 12:09:07;;;;;;;14.05;10.35;;;;;;;;;;5046509;28;20214;-75
2021/12/06 12:11:52;;;;;;;11.68;9.85;;;;;;;;;;5047887;28;20299;-74
2021/12/06 12:14:24;;;;;;;10.48;8.77;;;;;;;;;;5038145;28;20203;-74
2021/12/06 12:16:51;;;;;;;11.10;10.00;;;;;;;;;;5043717;28;20670;-75
2021/12/06 12:19:19;;;;;;;13.55;12.15;;;;;;;;;;5052780;28;20202;-75
2021/12/06 12:21:47;;;;;;;12.23;10.57;;;;;;;;;;5048228;28;20202;-76
2021/12/06 12:24:14;;;;;;;12.88;10.35;;;;;;;;;;5050796;28;20235;-78
2021/12/06 12:26:50;;;;;;;11.57;9.30;;;;;;;;;;5052841;28;20201;-74
2021/12/06 12:29:24;;;;;;;14.20;10.18;;;;;;;;;;5043401;28;20646;-75
2021/12/06 12:31:51;;;;;;;13.07;9.90;;;;;;;;;;5046192;28;20264;-75
2021/12/06 12:34:20;;;;;;;14.32;11.10;;;;;;;;;;5051487;28;20198;-74
2021/12/06 12:36:47;;;;;;;14.07;10.73;;;;;;;;;;5050026;28;20237;-75
2021/12/06 12:39:17;;;;;;;14.45;11.98;;;;;;;;;;5048303;28;20600;-76
2021/12/06 12:41:48;;;;;;;12.43;11.05;;;;;;;;;;5046872;28;20619;-76
2021/12/06 12:44:16;;;;;;;11.98;10.70;;;;;;;;;;5048686;28;20678;-76
2021/12/06 12:46:45;;;;;;;14.77;11.23;;;;;;;;;;5041532;28;20615;-77
2021/12/06 12:49:14;;;;;;;15.23;9.82;;;;;;;;;;5050043;28;20195;-78
2021/12/06 12:51:48;;;;;;;17.77;12.77;;;;;;;;;;5052604;28;20654;-78
2021/12/06 12:54:18;;;;;;;15.57;11.38;;;;;;;;;;5049695;28;20191;-79
2021/12/06 12:56:46;;;;;;;17.67;11.75;;;;;;;;;;5048609;28;20678;-79
2021/12/06 12:59:26;;;;;;;13.07;10.35;;;;;;;;;;5050358;28;20219;-80
2021/12/06 13:02:12;;;;;;;15.95;12.32;;;;;;;;;;5042741;28;20194;-77
2021/12/06 13:05:11;;;;;;;13.27;10.60;;;;;;;;;;5050222;28;20198;-75
2021/12/06 13:07:55;;;;;;;16.25;10.90;;;;;;;;;;5051592;28;20243;-76
2021/12/06 13:10:41;;;;;;;17.83;13.93;;;;;;;;;;5046053;28;20199;-75
2021/12/06 13:13:13;;;;;;;16.60;12.45;;;;;;;;;;5051297;28;20187;-76
2021/12/06 13:15:51;;;;;;;14.25;11.45;;;;;;;;;;5049152;28;20231;-74
2021/12/06 13:18:38;;;;;;;14.38;11.95;;;;;;;;;;5048454;28;20270;-76
2021/12/06 13:21:26;;;;;;;16.13;12.05;;;;;;;;;;5052014;28;20561;-76
2021/12/06 13:24:04;;;;;;;16.45;12.20;;;;;;;;;;5020004;28;20564;-76
2021/12/06 13:26:35;;;;;;;16.63;11.82;;;;;;;;;;5049994;28;20217;-78
2021/12/06 13:29:04;;;;;;;17.95;14.00;;;;;;;;;;5034035;28;20199;-75
2021/12/06 13:31:31;;;;;;;14.95;11.75;;;;;;;;;;5041400;28;20563;-75
2021/12/06 13:33:58;;;;;;;17.67;12.13;;;;;;;;;;5048745;28;20213;-75
2021/12/06 13:36:41;;;;;;;31.00;16.75;;;;;;;;;;5049474;28;20222;-74
2021/12/06 13:39:15;;;;;;;22.35;15.32;;;;;;;;;;5047712;28;20238;-75
2021/12/06 13:41:46;;;;;;;19.80;14.30;;;;;;;;;;5040251;28;20654;-75
2021/12/06 13:44:21;;;;;;;18.67;12.90;;;;;;;;;;5050488;28;20218;-74
2021/12/06 13:46:52;;;;;;;22.05;14.18;;;;;;;;;;5032351;28;20538;-74
2021/12/06 13:49:20;;;;;;;18.98;12.73;;;;;;;;;;5031905;28;20210;-76
2021/12/06 13:51:54;;;;;;;18.52;14.05;;;;;;;;;;5050004;28;20195;-75
2021/12/06 13:54:27;;;;;;;17.98;13.40;;;;;;;;;;5050526;28;20214;-76
2021/12/06 13:56:56;;;;;;;22.85;14.73;;;;;;;;;;5044821;28;20211;-74
2021/12/06 13:59:25;;;;;;;16.25;12.90;;;;;;;;;;5051545;28;20598;-75
2021/12/06 14:01:55;;;;;;;13.45;12.00;;;;;;;;;;5044310;28;20214;-75
2021/12/06 14:04:23;;;;;;;18.65;13.27;;;;;;;;;;5048069;28;20630;-74
2021/12/06 14:06:52;;;;;;;17.00;12.40;;;;;;;;;;5048953;28;20198;-75
2021/12/06 14:09:20;;;;;;;21.00;14.77;;;;;;;;;;5043921;28;20203;-75
2021/12/06 14:11:55;;;;;;;17.85;13.57;;;;;;;;;;5049634;28;20198;-74
2021/12/06 14:14:22;;;;;;;14.40;11.98;;;;;;;;;;5049961;28;20190;-75
2021/12/06 14:16:50;;;;;;;15.98;11.77;;;;;;;;;;5039922;28;20214;-77
2021/12/06 14:19:17;;;;;;;13.35;10.70;;;;;;;;;;5049259;28;20612;-74
2021/12/06 14:21:44;;;;;;;15.63;12.20;;;;;;;;;;5041678;28;20585;-75
2021/12/06 14:24:12;;;;;;;14.73;11.10;;;;;;;;;;5049412;28;20654;-74
2021/12/06 14:26:41;;;;;;;15.02;10.57;;;;;;;;;;5047315;28;20194;-75
2021/12/06 14:29:15;;;;;;;19.33;12.02;;;;;;;;;;5050959;28;20670;-76
2021/12/06 14:31:42;;;;;;;15.85;11.15;;;;;;;;;;5042243;28;20249;-75
2021/12/06 14:34:09;;;;;;;15.10;12.20;;;;;;;;;;5035607;28;20196;-75
2021/12/06 14:36:36;;;;;;;12.50;9.60;;;;;;;;;;5037583;28;20218;-75
2021/12/06 14:39:10;;;;;;;14.30;11.10;;;;;;;;;;5049307;28;20191;-75
2021/12/06 14:41:49;;;;;;;15.10;11.07;;;;;;;;;;5048254;28;20203;-74
2021/12/06 14:44:30;;;;;;;13.88;10.40;;;;;;;;;;5042892;28;20199;-75
2021/12/06 14:46:57;;;;;;;14.75;9.82;;;;;;;;;;5040525;28;20199;-75